Time;durP1;ratioP1;P1;durP2;ratioP2;P2;SDS_P1;SDS_P2;PMS_P1;PMS_P2;Temp;Humidity;BMP_temperature;BMP_pressure;BME280_temperature;BME280_humidity;BME280_pressure;Samples;Min_cycle;Max_cycle;Signal;HPM_P1;HPM_P2
2022/08/22 00:01:33;;;;;;;1.20;0.60;;;15.80;99.90;;;;;;4630641;30;20106;-85
2022/08/22 00:04:22;;;;;;;1.15;0.50;;;15.80;99.90;;;;;;4631064;30;20522;-85
2022/08/22 00:07:12;;;;;;;0.77;0.30;;;15.80;99.90;;;;;;4641162;30;20546;-85
2022/08/22 00:09:49;;;;;;;0.70;0.45;;;15.80;99.90;;;;;;4703890;30;20053;-85
2022/08/22 00:12:33;;;;;;;1.75;0.50;;;15.80;99.90;;;;;;4691895;30;20065;-86
2022/08/22 00:15:22;;;;;;;1.90;0.60;;;15.90;99.90;;;;;;4720552;30;20057;-85
2022/08/22 00:17:58;;;;;;;1.85;0.70;;;15.80;99.90;;;;;;4715060;30;20411;-85
2022/08/22 00:20:28;;;;;;;2.17;0.47;;;15.80;99.90;;;;;;4705623;30;20068;-85
2022/08/22 00:23:10;;;;;;;1.23;0.47;;;15.80;99.90;;;;;;4725644;30;20061;-85
2022/08/22 00:25:46;;;;;;;1.95;0.43;;;15.80;99.90;;;;;;4720317;30;20518;-85
2022/08/22 00:28:37;;;;;;;1.25;0.52;;;15.80;99.90;;;;;;4720006;30;20056;-85
2022/08/22 00:31:09;;;;;;;1.90;0.80;;;15.90;99.90;;;;;;4704272;30;20401;-86
2022/08/22 00:33:44;;;;;;;1.15;0.90;;;15.80;99.90;;;;;;4696229;30;20103;-85
2022/08/22 00:36:15;;;;;;;1.75;0.80;;;15.80;99.90;;;;;;4706126;30;20045;-85
2022/08/22 00:38:51;;;;;;;1.88;0.68;;;15.80;99.90;;;;;;4673836;30;20127;-85
2022/08/22 00:41:49;;;;;;;2.13;0.70;;;15.70;99.90;;;;;;4687629;30;20551;-86
2022/08/22 00:44:20;;;;;;;1.30;0.60;;;15.70;99.90;;;;;;4678101;30;20142;-85
2022/08/22 00:47:35;;;;;;;1.30;0.70;;;15.70;99.90;;;;;;4695876;30;20057;-85
2022/08/22 00:50:28;;;;;;;2.15;0.50;;;15.70;99.90;;;;;;4676540;30;20060;-85
2022/08/22 00:53:24;;;;;;;1.30;0.70;;;15.70;99.90;;;;;;4690796;30;20099;-86
2022/08/22 00:56:09;;;;;;;1.50;0.73;;;15.70;99.90;;;;;;4692764;30;20085;-86
2022/08/22 00:59:09;;;;;;;2.40;0.90;;;15.60;99.90;;;;;;4692887;30;20426;-85
2022/08/22 01:01:51;;;;;;;1.67;0.90;;;15.60;99.90;;;;;;4680173;30;20401;-85
2022/08/22 01:04:43;;;;;;;1.88;0.70;;;15.60;99.90;;;;;;4680149;30;20074;-86
2022/08/22 01:07:24;;;;;;;2.22;0.80;;;15.50;99.90;;;;;;4683218;30;20061;-86
2022/08/22 01:10:20;;;;;;;1.55;0.80;;;15.50;99.90;;;;;;4663985;30;20520;-86
2022/08/22 01:13:19;;;;;;;1.80;0.70;;;15.40;99.90;;;;;;4651908;30;20066;-85
2022/08/22 01:15:49;;;;;;;1.58;0.60;;;15.40;99.90;;;;;;4662870;30;20508;-85
2022/08/22 01:18:46;;;;;;;0.73;0.60;;;15.40;99.90;;;;;;4649101;30;20581;-85
2022/08/22 01:21:33;;;;;;;2.78;1.35;;;15.50;99.90;;;;;;4648956;30;20425;-85
2022/08/22 01:24:30;;;;;;;1.50;0.60;;;15.50;99.90;;;;;;4696588;30;20049;-85
2022/08/22 01:27:05;;;;;;;2.17;0.73;;;15.50;99.90;;;;;;4714231;30;20528;-86
2022/08/22 01:30:02;;;;;;;2.22;0.70;;;15.50;99.90;;;;;;4719374;30;20061;-85
2022/08/22 01:32:36;;;;;;;1.92;0.70;;;15.50;99.90;;;;;;4732873;30;20056;-85
2022/08/22 01:35:08;;;;;;;1.60;0.60;;;15.50;99.90;;;;;;4734530;30;20057;-85
2022/08/22 01:37:52;;;;;;;1.02;0.43;;;15.50;99.90;;;;;;4719114;30;20096;-86
2022/08/22 01:40:53;;;;;;;1.88;0.50;;;15.60;99.90;;;;;;4700194;30;20389;-85
2022/08/22 01:43:48;;;;;;;0.70;0.50;;;15.50;99.90;;;;;;4728254;30;20061;-85
2022/08/22 01:46:31;;;;;;;1.08;0.60;;;15.50;99.90;;;;;;4729073;30;20107;-85
2022/08/22 01:49:19;;;;;;;1.02;0.65;;;15.50;99.90;;;;;;4734418;30;20056;-85
2022/08/22 01:52:11;;;;;;;1.25;0.50;;;15.40;99.90;;;;;;4718651;30;20057;-85
2022/08/22 01:54:46;;;;;;;1.05;0.43;;;15.40;99.90;;;;;;4714396;30;20202;-85
2022/08/22 01:57:13;;;;;;;1.55;0.60;;;15.40;99.90;;;;;;4733538;30;20060;-85
2022/08/22 01:59:46;;;;;;;0.70;0.50;;;15.50;99.90;;;;;;4718600;30;20064;-85
2022/08/22 02:03:08;;;;;;;1.52;0.57;;;15.40;99.90;;;;;;4718518;30;20061;-84
2022/08/22 02:06:08;;;;;;;1.58;0.63;;;15.50;99.90;;;;;;4701200;30;20423;-84
2022/08/22 02:08:41;;;;;;;1.38;0.52;;;15.30;99.90;;;;;;4697013;30;20606;-85
2022/08/22 02:11:12;;;;;;;1.40;0.55;;;15.30;99.90;;;;;;4682342;30;20075;-85
2022/08/22 02:14:02;;;;;;;0.93;0.52;;;15.30;99.90;;;;;;4681548;30;20062;-85
2022/08/22 02:16:41;;;;;;;1.60;0.70;;;15.20;99.90;;;;;;4682889;30;20140;-85
2022/08/22 02:19:12;;;;;;;0.98;0.70;;;15.20;99.90;;;;;;4682536;30;20156;-85
2022/08/22 02:21:49;;;;;;;0.77;0.60;;;15.10;99.90;;;;;;4682596;30;20089;-85
2022/08/22 02:24:31;;;;;;;2.58;0.77;;;15.10;99.90;;;;;;4696279;30;20381;-86
2022/08/22 02:27:40;;;;;;;0.77;0.43;;;15.10;99.90;;;;;;4677846;30;20057;-85
2022/08/22 02:30:20;;;;;;;1.38;0.73;;;15.10;99.90;;;;;;4678759;30;20057;-84
2022/08/22 02:33:29;;;;;;;1.17;0.80;;;15.00;99.90;;;;;;4682449;30;20105;-85
2022/08/22 02:36:01;;;;;;;2.65;1.17;;;15.00;99.90;;;;;;4623797;30;20057;-86
2022/08/22 02:38:57;;;;;;;1.35;0.80;;;15.00;99.90;;;;;;4619510;31;20458;-86
2022/08/22 02:41:33;;;;;;;1.63;0.80;;;15.00;99.90;;;;;;4594731;31;20111;-86
2022/08/22 02:44:37;;;;;;;1.48;0.90;;;14.90;99.90;;;;;;4608731;31;20067;-85
2022/08/22 02:47:19;;;;;;;1.80;0.80;;;14.90;99.90;;;;;;4609229;31;20052;-86
2022/08/22 02:50:01;;;;;;;1.33;0.80;;;14.90;99.90;;;;;;4587079;31;20059;-85
2022/08/22 02:52:54;;;;;;;1.67;0.70;;;14.90;99.90;;;;;;4586448;31;20067;-85
2022/08/22 02:55:39;;;;;;;1.15;0.60;;;14.90;99.90;;;;;;4602712;31;20146;-86
2022/08/22 02:58:23;;;;;;;1.45;0.80;;;14.80;99.90;;;;;;4605197;31;20590;-85
2022/08/22 03:01:11;;;;;;;3.10;0.70;;;14.80;99.90;;;;;;4585782;31;20539;-85
2022/08/22 03:03:41;;;;;;;1.40;1.00;;;14.70;99.90;;;;;;4582807;31;20453;-85
2022/08/22 03:06:36;;;;;;;1.58;0.70;;;14.60;99.90;;;;;;4586563;31;20520;-85
2022/08/22 03:09:23;;;;;;;2.45;0.95;;;14.70;99.90;;;;;;4599034;31;20115;-85
2022/08/22 03:12:03;;;;;;;2.50;0.77;;;14.60;99.90;;;;;;4581496;31;20487;-85
2022/08/22 03:15:00;;;;;;;1.60;0.80;;;14.90;99.90;;;;;;4618524;31;20638;-86
2022/08/22 03:18:04;;;;;;;1.20;0.70;;;14.60;99.90;;;;;;4623902;30;20066;-86
2022/08/22 03:20:44;;;;;;;2.95;0.60;;;14.60;99.90;;;;;;4600280;30;20069;-85
2022/08/22 03:23:30;;;;;;;0.52;0.50;;;14.50;99.90;;;;;;4649910;30;20394;-86
2022/08/22 03:25:59;;;;;;;0.77;0.52;;;14.50;99.90;;;;;;4630809;31;20062;-86
2022/08/22 03:28:46;;;;;;;0.40;0.40;;;14.50;99.90;;;;;;4616713;30;20454;-85
2022/08/22 03:31:14;;;;;;;0.73;0.45;;;14.50;99.90;;;;;;4629520;30;20055;-85
2022/08/22 03:33:41;;;;;;;0.52;0.40;;;14.40;99.90;;;;;;4630685;30;20059;-85
2022/08/22 03:36:22;;;;;;;1.95;1.67;;;14.50;99.90;;;;;;4613229;31;20101;-86
2022/08/22 03:39:12;;;;;;;0.70;0.40;;;14.40;99.90;;;;;;4617651;31;20426;-85
2022/08/22 03:42:02;;;;;;;0.90;0.40;;;14.40;99.90;;;;;;4615002;31;20104;-85
2022/08/22 03:44:45;;;;;;;1.02;0.38;;;14.40;99.90;;;;;;4616411;30;20138;-85
2022/08/22 03:47:28;;;;;;;0.40;0.30;;;14.40;99.90;;;;;;4632448;30;20614;-86
2022/08/22 03:49:56;;;;;;;0.38;0.30;;;14.40;99.90;;;;;;4616717;31;20118;-85
2022/08/22 03:56:04;;;;;;;0.30;0.30;;;14.40;99.90;;;;;;4629982;30;20059;-85
2022/08/22 03:58:38;;;;;;;0.30;0.30;;;14.30;99.90;;;;;;4646416;30;20114;-85
2022/08/22 04:01:37;;;;;;;0.20;0.20;;;14.30;99.90;;;;;;4642769;30;20552;-85
2022/08/22 04:04:17;;;;;;;1.13;0.20;;;14.20;99.90;;;;;;4715937;30;20376;-85
2022/08/22 04:06:52;;;;;;;0.60;0.40;;;14.10;99.90;;;;;;4735555;30;20052;-85
2022/08/22 04:09:39;;;;;;;1.10;0.50;;;14.10;99.90;;;;;;4718708;30;20053;-85
2022/08/22 04:12:33;;;;;;;0.50;0.30;;;14.20;99.90;;;;;;4700920;30;20060;-85
2022/08/22 04:15:30;;;;;;;0.60;0.40;;;14.10;99.90;;;;;;4716597;30;20083;-85
2022/08/22 04:18:33;;;;;;;1.40;0.68;;;14.10;99.90;;;;;;4713486;30;20118;-85
2022/08/22 04:21:26;;;;;;;1.27;0.73;;;14.00;99.90;;;;;;4735549;30;20419;-86
2022/08/22 04:24:13;;;;;;;1.75;0.60;;;14.00;99.90;;;;;;4733475;30;20056;-85
2022/08/22 04:27:01;;;;;;;0.90;0.60;;;14.00;99.90;;;;;;4720190;30;20135;-85
2022/08/22 04:29:45;;;;;;;0.63;0.60;;;14.00;99.90;;;;;;4716420;30;20203;-86
2022/08/22 04:32:19;;;;;;;1.80;0.70;;;14.00;99.90;;;;;;4719254;30;20064;-86
2022/08/22 04:35:04;;;;;;;0.95;0.68;;;14.00;99.90;;;;;;4720606;30;20459;-85
2022/08/22 04:37:38;;;;;;;0.60;0.50;;;13.90;99.90;;;;;;4734320;30;20500;-85
2022/08/22 04:40:20;;;;;;;0.60;0.50;;;13.90;99.90;;;;;;4733297;30;20143;-86
2022/08/22 04:42:57;;;;;;;0.80;0.50;;;13.90;99.90;;;;;;4706561;30;20057;-86
2022/08/22 04:45:50;;;;;;;0.93;0.60;;;13.80;99.90;;;;;;4734893;30;20132;-85
2022/08/22 04:48:33;;;;;;;1.30;0.60;;;13.90;99.90;;;;;;4729088;30;20507;-86
2022/08/22 04:51:11;;;;;;;0.77;0.57;;;13.90;99.90;;;;;;4704302;30;20056;-85
2022/08/22 04:54:14;;;;;;;0.82;0.40;;;13.90;99.90;;;;;;4718266;30;20068;-85
2022/08/22 04:57:01;;;;;;;0.55;0.50;;;13.80;99.90;;;;;;4730153;30;20059;-86
2022/08/22 04:59:29;;;;;;;0.68;0.40;;;13.90;99.90;;;;;;4731429;30;20063;-85
2022/08/22 05:01:57;;;;;;;0.60;0.32;;;13.90;99.90;;;;;;4718705;30;20103;-85
2022/08/22 05:04:30;;;;;;;0.88;0.47;;;14.20;99.90;;;;;;4717958;30;20139;-86
2022/08/22 05:07:07;;;;;;;0.77;0.40;;;13.90;99.90;;;;;;4726305;30;20392;-85
2022/08/22 05:09:38;;;;;;;0.38;0.28;;;13.90;99.90;;;;;;4718523;30;20399;-86
2022/08/22 05:12:10;;;;;;;0.93;0.40;;;13.90;99.90;;;;;;4736174;30;20407;-87
2022/08/22 05:14:36;;;;;;;0.32;0.30;;;13.90;99.90;;;;;;4717188;30;20052;-86
2022/08/22 05:17:05;;;;;;;0.30;0.30;;;13.90;99.90;;;;;;4717563;30;20147;-86
2022/08/22 05:19:36;;;;;;;0.30;0.30;;;13.90;99.90;;;;;;4721301;30;20055;-86
2022/08/22 05:22:02;;;;;;;0.40;0.35;;;14.10;99.90;;;;;;4707055;30;20056;-86
2022/08/22 05:24:51;;;;;;;0.50;0.40;;;13.80;99.90;;;;;;4718649;30;20071;-86
2022/08/22 05:27:22;;;;;;;0.43;0.38;;;13.70;99.90;;;;;;4719058;30;20146;-86
2022/08/22 05:29:53;;;;;;;0.30;0.30;;;14.10;99.90;;;;;;4718152;30;20083;-86
2022/08/22 05:32:46;;;;;;;0.82;0.40;;;13.70;99.90;;;;;;4718651;30;20060;-86
2022/08/22 05:35:13;;;;;;;2.20;0.50;;;13.70;99.90;;;;;;4733981;30;20049;-86
2022/08/22 05:37:43;;;;;;;1.05;0.45;;;13.70;99.90;;;;;;4733022;30;20057;-86
2022/08/22 05:40:19;;;;;;;0.93;0.32;;;13.70;99.90;;;;;;4720569;30;20063;-86
2022/08/22 05:42:45;;;;;;;1.02;0.40;;;13.80;99.90;;;;;;4718882;30;20144;-86
2022/08/22 05:45:12;;;;;;;0.52;0.45;;;13.90;99.90;;;;;;4717933;30;20576;-86
2022/08/22 05:47:48;;;;;;;0.40;0.40;;;13.90;99.90;;;;;;4712984;30;20487;-87
2022/08/22 05:50:22;;;;;;;0.20;0.20;;;14.80;99.90;;;;;;4719254;30;20158;-86
2022/08/22 05:52:54;;;;;;;0.22;0.20;;;14.00;99.90;;;;;;4732795;30;20123;-86
2022/08/22 05:55:19;;;;;;;0.47;0.40;;;14.10;99.90;;;;;;4731353;30;20064;-86
2022/08/22 05:57:50;;;;;;;0.50;0.40;;;14.20;99.90;;;;;;4717295;30;20060;-85
2022/08/22 06:00:20;;;;;;;0.60;0.40;;;14.20;99.90;;;;;;4717817;30;20060;-84
2022/08/22 06:02:52;;;;;;;0.50;0.30;;;14.30;99.90;;;;;;4718045;30;20139;-86
2022/08/22 06:05:24;;;;;;;1.42;0.35;;;15.00;99.90;;;;;;4734353;30;20057;-87
2022/08/22 06:08:05;;;;;;;0.40;0.40;;;14.50;99.90;;;;;;4717658;30;20084;-85
2022/08/22 06:10:56;;;;;;;0.50;0.35;;;14.60;99.90;;;;;;4733648;30;20056;-86
2022/08/22 06:13:32;;;;;;;0.45;0.40;;;14.70;99.90;;;;;;4716805;30;20110;-85
2022/08/22 06:16:12;;;;;;;2.08;1.10;;;15.10;99.90;;;;;;4713100;30;20878;-85
2022/08/22 06:18:45;;;;;;;0.88;0.57;;;14.80;99.90;;;;;;4717787;30;20081;-86
2022/08/22 06:21:23;;;;;;;1.75;0.57;;;14.90;99.90;;;;;;4735151;30;20060;-86
2022/08/22 06:23:55;;;;;;;1.40;0.70;;;15.20;99.90;;;;;;4709601;30;20480;-86
2022/08/22 06:26:24;;;;;;;1.23;0.55;;;15.20;99.90;;;;;;4731658;30;20061;-86
2022/08/22 06:28:54;;;;;;;0.80;0.65;;;15.20;99.90;;;;;;4732987;30;20053;-86
2022/08/22 06:31:31;;;;;;;2.05;0.50;;;15.30;99.90;;;;;;4719462;30;20059;-87
2022/08/22 06:34:06;;;;;;;1.70;0.70;;;15.40;99.90;;;;;;4712329;30;20499;-86
2022/08/22 06:36:36;;;;;;;1.17;0.60;;;15.50;99.90;;;;;;4716514;30;20495;-86
2022/08/22 06:39:22;;;;;;;1.20;0.60;;;15.60;99.90;;;;;;4716890;30;20064;-85
2022/08/22 06:41:54;;;;;;;;;;;15.80;99.90;;;;;;4718434;30;20609;-84
2022/08/22 06:44:36;;;;;;;0.73;0.60;;;15.90;99.90;;;;;;4718631;30;19926;-84
2022/08/22 06:47:09;;;;;;;1.27;0.60;;;16.10;99.90;;;;;;4727255;30;20143;-84
2022/08/22 06:49:38;;;;;;;0.95;0.60;;;16.20;99.90;;;;;;4734825;30;20064;-84
2022/08/22 06:52:13;;;;;;;0.60;0.50;;;16.30;99.90;;;;;;4734249;30;20067;-84
2022/08/22 06:54:45;;;;;;;0.80;0.40;;;16.40;99.90;;;;;;4735830;30;20088;-83
2022/08/22 06:57:35;;;;;;;1.83;0.70;;;16.60;99.90;;;;;;4737307;30;20195;-83
2022/08/22 07:00:06;;;;;;;0.90;0.60;;;16.70;99.90;;;;;;4740396;30;20131;-84
2022/08/22 07:02:41;;;;;;;1.50;0.80;;;16.80;99.90;;;;;;4727201;30;20069;-84
2022/08/22 07:05:19;;;;;;;;;;;16.90;99.90;;;;;;4729163;30;20076;-83
2022/08/22 07:10:52;;;;;;;;;;;17.40;99.90;;;;;;4728215;30;20061;-85
2022/08/22 07:13:19;;;;;;;0.95;0.52;;;17.30;99.90;;;;;;4711983;30;20348;-85
2022/08/22 07:15:54;;;;;;;1.27;0.60;;;17.50;99.90;;;;;;4712350;30;20401;-86
2022/08/22 07:18:23;;;;;;;;;;;17.60;99.90;;;;;;4712131;30;20104;-85
2022/08/22 07:20:58;;;;;;;0.95;0.50;;;17.70;99.90;;;;;;4711663;30;19927;-86
2022/08/22 07:23:52;;;;;;;2.08;0.82;;;17.80;99.90;;;;;;4710006;30;20198;-87
2022/08/22 07:26:53;;;;;;;0.57;0.40;;;18.00;99.90;;;;;;4728680;30;20071;-86
2022/08/22 07:29:53;;;;;;;1.00;0.45;;;17.90;99.90;;;;;;4714201;30;20057;-86
2022/08/22 07:32:45;;;;;;;5.30;0.88;;;18.30;99.90;;;;;;4714531;30;20065;-86
2022/08/22 07:35:48;;;;;;;1.83;0.75;;;18.40;99.90;;;;;;4728003;30;20096;-84
2022/08/22 07:38:34;;;;;;;1.48;0.50;;;18.50;99.90;;;;;;4714435;30;20057;-85
2022/08/22 07:44:22;;;;;;;1.98;0.75;;;18.60;99.90;;;;;;4685318;30;20057;-85
2022/08/22 07:47:23;;;;;;;0.73;0.50;;;18.80;99.90;;;;;;4678693;30;20492;-86
2022/08/22 07:50:10;;;;;;;3.65;0.60;;;19.60;99.90;;;;;;4634999;30;20066;-85
2022/08/22 07:53:24;;;;;;;2.22;0.80;;;19.00;99.90;;;;;;4694320;30;20105;-86
2022/08/22 07:55:58;;;;;;;1.45;0.60;;;19.00;99.90;;;;;;4693562;30;20129;-85
2022/08/22 07:59:08;;;;;;;3.15;0.70;;;19.10;99.90;;;;;;4693524;30;20089;-86
2022/08/22 08:01:57;;;;;;;2.75;0.50;;;19.20;99.90;;;;;;4664832;30;20159;-86
2022/08/22 08:04:32;;;;;;;0.85;0.50;;;19.20;99.90;;;;;;4672626;30;20121;-86
2022/08/22 08:07:01;;;;;;;0.93;0.60;;;19.30;99.90;;;;;;4674952;30;20042;-86
2022/08/22 08:09:31;;;;;;;3.70;0.70;;;19.10;99.90;;;;;;4673357;30;20042;-85
2022/08/22 08:12:01;;;;;;;3.67;0.60;;;19.40;99.90;;;;;;4671479;30;20056;-88
2022/08/22 08:14:28;;;;;;;1.63;0.50;;;19.50;99.90;;;;;;4687202;30;20062;-84
2022/08/22 08:17:03;;;;;;;2.40;0.85;;;19.60;99.90;;;;;;4685741;30;20145;-85
2022/08/22 08:19:32;;;;;;;1.50;0.60;;;19.70;99.90;;;;;;4689926;30;20069;-86
2022/08/22 08:21:58;;;;;;;0.82;0.50;;;19.80;99.90;;;;;;4690247;30;20066;-85
2022/08/22 08:24:40;;;;;;;2.05;0.60;;;19.80;99.90;;;;;;4689338;30;20046;-88
2022/08/22 08:30:01;;;;;;;2.70;0.70;;;20.00;99.90;;;;;;4704930;30;20045;-86
2022/08/22 08:32:32;;;;;;;4.53;0.70;;;20.10;99.90;;;;;;4682343;30;20053;-86
2022/08/22 08:35:15;;;;;;;2.00;0.50;;;20.10;99.90;;;;;;4702857;30;20050;-87
2022/08/22 08:37:44;;;;;;;3.50;0.60;;;20.10;99.90;;;;;;4703753;30;20095;-87
2022/08/22 08:40:31;;;;;;;2.97;0.70;;;20.20;99.90;;;;;;4741342;30;20092;-85
2022/08/22 08:46:19;;;;;;;1.02;0.70;;;20.20;99.90;;;;;;4746681;30;20052;-87
2022/08/22 08:48:53;;;;;;;1.75;0.60;;;20.20;99.90;;;;;;4740385;30;20060;-84
2022/08/22 08:51:38;;;;;;;2.00;1.17;;;20.20;99.90;;;;;;4751707;30;20052;-85
2022/08/22 08:54:19;;;;;;;1.50;0.50;;;20.20;99.90;;;;;;4747500;30;20064;-86
2022/08/22 08:56:56;;;;;;;2.90;0.70;;;20.20;99.90;;;;;;4704617;30;20136;-84
2022/08/22 09:00:00;;;;;;;3.60;0.80;;;20.20;99.90;;;;;;4728023;30;20060;-86
2022/08/22 09:02:54;;;;;;;3.08;0.60;;;20.20;99.90;;;;;;4734812;30;20060;-85
2022/08/22 09:05:44;;;;;;;1.25;0.63;;;20.30;99.90;;;;;;4734466;30;20069;-84
2022/08/22 09:08:36;;;;;;;1.58;0.50;;;20.40;99.90;;;;;;4755529;30;20056;-84
2022/08/22 09:11:53;;;;;;;2.45;0.50;;;20.50;99.90;;;;;;4630475;30;20514;-84
2022/08/22 09:14:56;;;;;;;1.35;0.60;;;20.60;99.90;;;;;;4640069;30;20529;-84
2022/08/22 09:17:40;;;;;;;1.40;0.70;;;20.60;99.90;;;;;;4629871;31;20060;-84
2022/08/22 09:20:35;;;;;;;1.98;0.63;;;20.70;99.90;;;;;;4630128;30;20055;-86
2022/08/22 09:23:29;;;;;;;2.67;0.65;;;20.80;99.90;;;;;;4618392;31;20063;-87
2022/08/22 09:26:07;;;;;;;3.40;0.68;;;20.90;99.90;;;;;;4633163;31;20143;-86
2022/08/22 09:28:47;;;;;;;3.88;0.85;;;21.00;99.90;;;;;;4618571;31;20176;-86
2022/08/22 09:31:59;;;;;;;2.35;0.70;;;21.10;99.90;;;;;;4619955;31;20110;-86
2022/08/22 09:34:49;;;;;;;2.28;0.60;;;21.20;99.90;;;;;;4617577;31;20064;-85
2022/08/22 09:37:39;;;;;;;3.28;0.70;;;21.50;99.90;;;;;;4568502;31;20056;-84
2022/08/22 09:40:46;;;;;;;2.40;0.60;;;21.70;99.90;;;;;;4570242;31;20061;-85
2022/08/22 09:43:19;;;;;;;0.93;0.40;;;22.00;99.90;;;;;;4568616;31;20059;-85
2022/08/22 09:46:09;;;;;;;2.63;0.93;;;22.20;99.90;;;;;;4568987;31;20062;-87
2022/08/22 09:48:53;;;;;;;2.78;0.95;;;22.30;99.90;;;;;;4612518;30;20043;-86
2022/08/22 09:51:41;;;;;;;3.05;0.32;;;22.60;99.90;;;;;;4653029;30;20083;-88
2022/08/22 09:54:18;;;;;;;6.07;0.80;;;22.80;99.90;;;;;;4645491;30;20066;-86
2022/08/22 09:56:59;;;;;;;5.50;0.98;;;22.90;99.90;;;;;;4634829;30;20059;-85
2022/08/22 09:59:49;;;;;;;3.70;0.93;;;22.90;99.90;;;;;;4633640;30;20067;-86
2022/08/22 10:41:46;;;;;;;2.95;0.60;;;24.80;99.90;;;;;;4915542;24;20151;-86
2022/08/22 11:17:10;;;;;;;2.85;0.55;;;26.20;99.50;;;;;;4902079;24;20652;-86
2022/08/22 11:20:06;;;;;;;3.75;0.57;;;26.00;99.00;;;;;;4682248;30;20078;-86
2022/08/22 11:23:09;;;;;;;2.78;0.57;;;26.10;99.50;;;;;;4683238;30;20057;-85
2022/08/22 11:25:56;;;;;;;6.38;0.88;;;26.40;99.10;;;;;;4698970;30;20068;-86
2022/08/22 11:28:31;;;;;;;1.95;0.50;;;26.50;97.00;;;;;;4698324;30;20058;-85
2022/08/22 11:31:03;;;;;;;;;;;26.30;97.60;;;;;;4684177;30;20088;-86
2022/08/22 11:34:12;;;;;;;2.92;0.60;;;26.20;98.00;;;;;;4683763;30;19968;-85
2022/08/22 11:36:51;;;;;;;1.65;0.40;;;26.10;98.00;;;;;;4615146;31;20107;-85
2022/08/22 11:40:00;;;;;;;3.10;0.85;;;26.00;98.80;;;;;;4615372;31;20461;-84
2022/08/22 11:42:42;;;;;;;2.70;0.70;;;25.90;97.90;;;;;;4611722;31;20070;-86
2022/08/22 11:45:44;;;;;;;2.47;0.60;;;25.70;97.80;;;;;;4607824;31;20087;-86
2022/08/22 11:48:44;;;;;;;1.70;0.60;;;25.80;97.60;;;;;;4612556;31;20067;-85
2022/08/22 11:51:56;;;;;;;3.65;0.75;;;25.90;97.70;;;;;;4595934;31;20071;-85
2022/08/22 11:54:43;;;;;;;3.67;0.65;;;25.80;97.90;;;;;;4597446;31;20060;-85
2022/08/22 11:57:15;;;;;;;2.72;0.40;;;25.90;97.70;;;;;;4600666;31;20071;-84
2022/08/22 12:00:05;;;;;;;2.83;0.80;;;26.20;97.40;;;;;;4614378;31;20096;-85
2022/08/22 12:02:33;;;;;;;3.10;0.50;;;26.20;95.90;;;;;;4600129;31;20094;-85
2022/08/22 12:05:15;;;;;;;2.95;0.40;;;26.20;95.90;;;;;;4614532;31;20086;-86
2022/08/22 12:07:52;;;;;;;3.38;0.60;;;26.30;95.30;;;;;;4614509;31;20134;-86
2022/08/22 12:10:31;;;;;;;2.50;0.40;;;26.50;95.30;;;;;;4642832;30;20149;-85
2022/08/22 12:13:08;;;;;;;2.03;0.47;;;26.60;95.30;;;;;;4667751;30;20050;-86
2022/08/22 12:16:05;;;;;;;3.38;0.45;;;26.70;95.60;;;;;;4681465;30;20062;-87
2022/08/22 12:18:42;;;;;;;3.67;0.50;;;26.90;94.60;;;;;;4683991;30;20073;-87
2022/08/22 12:21:29;;;;;;;3.25;0.70;;;27.00;96.10;;;;;;4683042;30;20077;-86
2022/08/22 12:28:13;;;;;;;4.07;0.50;;;26.70;95.50;;;;;;4718488;24;20148;-85
2022/08/22 12:37:44;;;;;;;3.42;0.77;;;26.40;95.40;;;;;;4715001;30;20059;-89
2022/08/22 12:40:50;;;;;;;3.53;0.57;;;26.40;95.50;;;;;;4702707;30;20057;-88
2022/08/22 12:44:36;;;;;;;3.08;0.90;;;26.60;96.00;;;;;;4688644;30;20457;-84
2022/08/22 12:47:04;;;;;;;3.30;0.70;;;26.60;95.10;;;;;;4634694;30;20154;-86
2022/08/22 12:49:37;;;;;;;1.85;0.40;;;26.70;96.10;;;;;;4633582;30;20115;-86
2022/08/22 12:52:43;;;;;;;3.03;0.70;;;26.80;96.60;;;;;;4639384;30;20058;-86
2022/08/22 12:55:44;;;;;;;3.60;0.80;;;26.90;96.10;;;;;;4653721;30;20088;-87
2022/08/22 14:57:55;;;;;;;2.35;0.60;;;28.90;85.00;;;;;;6187540;23;20094;-85
2022/08/22 15:40:32;;;;;;;1.85;0.50;;;28.00;90.10;;;;;;6150284;23;20056;-87
2022/08/22 15:46:15;;;;;;;1.58;0.32;;;28.10;89.40;;;;;;6272172;22;20024;-88
2022/08/22 17:40:27;;;;;;;3.67;0.60;;;23.60;99.90;;;;;;6252781;22;20019;31
2022/08/22 17:43:30;;;;;;;2.25;0.50;;;23.50;99.90;;;;;;6239496;23;20111;-87
2022/08/22 17:46:23;;;;;;;1.15;0.65;;;23.30;99.90;;;;;;6213971;23;20027;-86
2022/08/22 17:49:22;;;;;;;5.95;0.60;;;23.30;99.90;;;;;;6241850;23;20066;-85
2022/08/22 17:52:06;;;;;;;2.08;0.47;;;23.20;99.90;;;;;;6073415;23;20022;-85
2022/08/22 17:54:40;;;;;;;2.33;0.60;;;23.10;99.90;;;;;;6122505;23;20017;-85
2022/08/22 17:57:28;;;;;;;5.38;1.00;;;23.00;99.90;;;;;;6121613;23;20014;-85
2022/08/22 18:00:09;;;;;;;2.65;0.60;;;22.90;99.90;;;;;;6096837;23;20025;-85
2022/08/22 18:03:00;;;;;;;2.35;0.57;;;22.80;99.90;;;;;;6097751;23;20021;-86
2022/08/22 18:05:31;;;;;;;0.70;0.40;;;22.70;99.90;;;;;;6096599;23;20022;-85
2022/08/22 18:08:37;;;;;;;;;;;;;;;;;;;;;
2022/08/22 18:15:59;;;;;;;1.95;0.50;;;22.50;99.90;;;;;;6212470;23;20365;-91
2022/08/22 18:33:35;;;;;;;1.85;0.55;;;22.00;99.90;;;;;;6286552;22;20442;-88
2022/08/22 18:43:44;;;;;;;1.50;0.50;;;21.60;99.90;;;;;;6301535;22;20019;-89
2022/08/22 18:46:30;;;;;;;1.95;0.57;;;21.50;99.90;;;;;;6282348;22;20791;-91
2022/08/22 19:01:45;;;;;;;4.97;0.60;;;21.20;99.90;;;;;;6278462;22;20106;-90
2022/08/22 19:07:26;;;;;;;2.25;0.60;;;21.00;99.90;;;;;;6324109;22;20031;-89
2022/08/22 19:10:55;;;;;;;1.75;0.60;;;21.10;99.90;;;;;;6240178;22;20023;-86
2022/08/22 19:43:43;;;;;;;2.05;0.50;;;20.30;99.90;;;;;;6291260;22;20031;-86
2022/08/22 19:46:32;;;;;;;1.58;0.57;;;20.10;99.90;;;;;;6252012;22;20024;-88
2022/08/22 19:48:57;;;;;;;1.70;0.68;;;20.30;99.90;;;;;;6248097;22;20024;-85
2022/08/22 19:51:26;;;;;;;2.10;0.50;;;19.90;99.90;;;;;;6275677;22;20026;-85
2022/08/22 19:54:19;;;;;;;1.25;0.57;;;20.20;99.90;;;;;;6275618;22;20044;-86
2022/08/22 19:57:09;;;;;;;3.60;0.50;;;20.20;99.90;;;;;;6275055;22;20081;-86
2022/08/22 19:59:37;;;;;;;1.58;0.50;;;20.10;99.90;;;;;;6275284;22;20020;-85
2022/08/22 20:02:33;;;;;;;1.17;0.50;;;20.00;99.90;;;;;;6274884;22;20019;-84
2022/08/22 20:05:21;;;;;;;1.27;0.60;;;20.00;99.90;;;;;;6275385;22;20019;-85
2022/08/22 20:07:57;;;;;;;1.90;0.50;;;19.80;99.90;;;;;;6274573;22;20016;-84
2022/08/22 20:10:32;;;;;;;0.93;0.47;;;19.80;99.90;;;;;;6275397;22;20024;-84
2022/08/22 20:13:18;;;;;;;3.00;0.50;;;19.70;99.90;;;;;;6274754;22;20027;-85
2022/08/22 20:16:09;;;;;;;1.77;0.60;;;19.70;99.90;;;;;;6280320;22;20019;-86
2022/08/22 20:19:02;;;;;;;2.45;0.50;;;19.50;99.90;;;;;;6276587;22;20054;-84
2022/08/22 20:25:34;;;;;;;2.17;0.88;;;19.40;99.90;;;;;;6277955;22;20018;-86
2022/08/22 20:28:05;;;;;;;2.15;0.88;;;19.40;99.90;;;;;;6275735;22;20019;-86
2022/08/22 20:30:41;;;;;;;1.15;0.50;;;19.30;99.90;;;;;;6268046;22;20024;-85
2022/08/22 20:33:12;;;;;;;2.58;0.50;;;19.30;99.90;;;;;;6284286;22;20034;-86
2022/08/22 20:35:51;;;;;;;0.55;0.45;;;19.20;99.90;;;;;;6273658;22;20038;-86
2022/08/22 20:38:23;;;;;;;1.27;0.50;;;19.20;99.90;;;;;;6278535;22;20023;-86
2022/08/22 20:41:24;;;;;;;1.17;0.60;;;19.10;99.90;;;;;;6299259;22;20020;-87
2022/08/22 20:44:04;;;;;;;2.83;0.52;;;19.10;99.90;;;;;;6282439;22;20075;-85
2022/08/22 20:46:52;;;;;;;1.95;0.60;;;19.00;99.90;;;;;;6273859;22;20040;-85
2022/08/22 20:49:24;;;;;;;0.95;0.50;;;19.00;99.90;;;;;;6272797;22;20259;-85
2022/08/22 20:52:03;;;;;;;2.55;0.50;;;18.90;99.90;;;;;;6273827;22;20019;-83
2022/08/22 20:54:33;;;;;;;1.02;0.45;;;18.90;99.90;;;;;;6279760;22;20023;-87
2022/08/22 20:57:10;;;;;;;2.03;0.50;;;18.80;99.90;;;;;;6281361;22;20449;-85
2022/08/22 20:59:41;;;;;;;1.60;0.60;;;18.80;99.90;;;;;;6313567;22;20019;-86
2022/08/22 21:02:17;;;;;;;1.95;0.50;;;18.80;99.90;;;;;;6307321;22;20018;-84
2022/08/22 21:05:12;;;;;;;2.60;0.82;;;18.80;99.90;;;;;;6306461;22;20017;-82
2022/08/22 21:07:42;;;;;;;0.95;0.40;;;18.70;99.90;;;;;;6152319;23;20021;-83
2022/08/22 21:13:36;;;;;;;2.20;0.50;;;18.70;99.90;;;;;;6064883;23;20525;-90
2022/08/22 21:16:18;;;;;;;0.90;0.40;;;18.60;99.90;;;;;;6064708;23;20070;-84
2022/08/22 21:19:15;;;;;;;4.03;0.60;;;18.60;99.90;;;;;;6065619;23;20030;-82
2022/08/22 21:21:40;;;;;;;0.63;0.45;;;18.60;99.90;;;;;;6069540;23;20418;-89
2022/08/22 21:24:09;;;;;;;2.05;0.50;;;18.50;99.90;;;;;;6071182;23;20030;-85
2022/08/22 21:26:54;;;;;;;2.30;0.47;;;18.50;99.90;;;;;;6070655;23;20049;-90
2022/08/22 21:29:25;;;;;;;2.00;0.65;;;18.50;99.90;;;;;;6069998;23;20027;-90
2022/08/22 21:31:56;;;;;;;1.20;0.60;;;18.40;99.90;;;;;;6067321;23;20737;-88
2022/08/22 21:34:27;;;;;;;1.85;0.60;;;18.40;99.90;;;;;;6066457;23;20023;-88
2022/08/22 21:40:38;;;;;;;2.03;0.50;;;18.40;99.90;;;;;;6067946;23;20034;-87
2022/08/22 21:43:25;;;;;;;1.20;0.40;;;18.30;99.90;;;;;;6073910;23;20022;-88
2022/08/22 21:45:51;;;;;;;2.58;0.90;;;18.40;99.90;;;;;;6146683;23;20025;-86
2022/08/22 21:48:32;;;;;;;1.25;0.60;;;18.30;99.90;;;;;;6141778;23;20036;-89